Time;durP1;ratioP1;P1;durP2;ratioP2;P2;SDS_P1;SDS_P2;PMS_P1;PMS_P2;Temp;Humidity;BMP_temperature;BMP_pressure;BME280_temperature;BME280_humidity;BME280_pressure;Samples;Min_cycle;Max_cycle;Signal;HPM_P1;HPM_P2
2023/06/19 00:03:25;;;;;;;13.48;10.52;;;14.60;99.90;;;;;;21054811;28;20527;-47
2023/06/19 00:13:27;;;;;;;9.98;8.70;;;14.80;99.90;;;;;;21071633;28;20036;-47
2023/06/19 00:23:28;;;;;;;8.68;7.75;;;14.60;99.90;;;;;;21071900;28;20350;-49
2023/06/19 00:33:30;;;;;;;11.05;9.45;;;14.30;99.90;;;;;;21070811;28;20040;-48
2023/06/19 00:43:32;;;;;;;10.32;8.73;;;14.00;99.90;;;;;;21051705;28;20606;-50
2023/06/19 00:53:34;;;;;;;11.45;9.45;;;13.90;99.90;;;;;;21069440;28;20477;-49
2023/06/19 01:03:37;;;;;;;14.20;8.70;;;14.00;99.90;;;;;;21068404;28;20032;-53
2023/06/19 01:13:55;;;;;;;11.02;8.52;;;14.00;99.90;;;;;;21066949;28;20035;-51
2023/06/19 01:23:57;;;;;;;9.60;8.07;;;13.60;99.90;;;;;;21066359;28;20024;-50
2023/06/19 01:34:00;;;;;;;12.88;11.30;;;13.30;99.90;;;;;;21031745;28;20031;-47
2023/06/19 01:44:02;;;;;;;18.38;13.00;;;13.20;99.90;;;;;;21065022;28;20101;-52
2023/06/19 01:54:04;;;;;;;15.45;13.02;;;13.30;99.90;;;;;;21066356;28;20028;-49
2023/06/19 02:04:06;;;;;;;17.42;14.50;;;13.30;99.90;;;;;;21063954;28;20265;-53
2023/06/19 02:14:11;;;;;;;21.45;15.48;;;13.50;99.90;;;;;;21063289;28;20035;-52
2023/06/19 02:24:12;;;;;;;20.02;16.88;;;13.60;99.90;;;;;;21045272;28;20497;-51
2023/06/19 02:34:14;;;;;;;23.38;17.42;;;13.60;99.90;;;;;;21044591;28;20032;-46
2023/06/19 02:44:16;;;;;;;24.70;18.83;;;13.50;99.90;;;;;;21061919;28;20098;-53
2023/06/19 02:54:19;;;;;;;26.60;19.95;;;13.60;99.90;;;;;;21043978;28;20032;-50
2023/06/19 03:04:20;;;;;;;24.35;19.60;;;13.70;99.90;;;;;;21043117;28;20089;-48
2023/06/19 03:14:22;;;;;;;23.58;19.77;;;13.60;99.90;;;;;;21060864;28;20043;-50
2023/06/19 03:24:25;;;;;;;23.10;19.48;;;13.60;99.90;;;;;;21043491;28;20435;-49
2023/06/19 03:34:30;;;;;;;24.63;19.33;;;13.50;99.90;;;;;;21041663;28;20032;-48
2023/06/19 03:44:34;;;;;;;25.23;20.10;;;13.40;99.90;;;;;;21044544;28;20105;-47
2023/06/19 03:54:36;;;;;;;29.42;22.73;;;13.50;99.90;;;;;;21039471;28;20082;-51
2023/06/19 04:04:37;;;;;;;24.30;19.88;;;13.50;99.90;;;;;;21073231;28;20027;-51
2023/06/19 04:14:39;;;;;;;23.88;20.45;;;13.50;99.90;;;;;;21054383;28;20358;-49
2023/06/19 04:24:41;;;;;;;25.95;19.38;;;13.60;99.90;;;;;;21072363;28;20036;-48
2023/06/19 04:34:45;;;;;;;19.70;17.05;;;13.90;99.90;;;;;;21034615;28;20078;-50
2023/06/19 04:44:47;;;;;;;22.52;16.55;;;14.30;99.90;;;;;;21048904;28;20031;-49
2023/06/19 04:54:49;;;;;;;18.70;14.68;;;14.50;99.90;;;;;;21068036;28;20024;-52
2023/06/19 05:04:50;;;;;;;17.33;15.25;;;14.70;99.90;;;;;;21068480;28;20036;-48
2023/06/19 05:14:52;;;;;;;13.27;11.63;;;14.90;99.90;;;;;;21067346;28;20036;-47
2023/06/19 05:24:54;;;;;;;14.93;12.18;;;15.10;99.90;;;;;;21067301;28;20035;-47
2023/06/19 05:34:55;;;;;;;14.57;12.15;;;15.50;99.90;;;;;;21066066;28;20036;-53
2023/06/19 05:44:57;;;;;;;17.63;13.88;;;16.00;99.90;;;;;;21065261;28;20043;-50
2023/06/19 05:54:59;;;;;;;17.08;14.60;;;16.50;99.90;;;;;;21064863;28;20436;-48
2023/06/19 06:05:00;;;;;;;15.13;13.48;;;17.00;99.90;;;;;;21063519;28;20086;-52
2023/06/19 06:15:04;;;;;;;14.07;11.00;;;17.60;99.90;;;;;;21061170;28;20074;-49
2023/06/19 06:25:06;;;;;;;12.35;10.43;;;19.70;99.90;;;;;;21059885;28;20032;-52
2023/06/19 06:35:08;;;;;;;8.68;7.60;;;22.20;99.90;;;;;;21060359;28;20059;-54
2023/06/19 06:45:10;;;;;;;9.60;8.60;;;24.30;99.90;;;;;;21062197;28;20028;-51
2023/06/19 06:55:12;;;;;;;8.93;8.02;;;25.50;99.90;;;;;;21043418;28;20094;-55
2023/06/19 07:05:13;;;;;;;12.07;10.95;;;26.70;96.90;;;;;;21061784;28;20040;-51
2023/06/19 07:15:15;;;;;;;7.50;6.80;;;27.30;93.40;;;;;;21060892;28;20024;-48
2023/06/19 07:25:17;;;;;;;9.82;8.93;;;27.00;95.40;;;;;;21076951;28;20473;-55
2023/06/19 07:35:19;;;;;;;9.20;8.40;;;28.10;93.00;;;;;;21073368;28;20105;-48
2023/06/19 07:45:22;;;;;;;11.10;8.85;;;27.90;93.80;;;;;;21075130;28;20044;-55
2023/06/19 07:55:24;;;;;;;12.07;7.53;;;27.60;93.90;;;;;;21072268;28;20036;-50
2023/06/19 08:05:26;;;;;;;11.07;10.07;;;27.70;92.90;;;;;;21073934;28;20032;-51
2023/06/19 08:15:27;;;;;;;10.52;9.52;;;26.60;93.40;;;;;;21072816;28;20082;-56
2023/06/19 08:25:29;;;;;;;7.75;7.00;;;24.70;95.40;;;;;;21072093;28;20054;-49
2023/06/19 08:35:31;;;;;;;8.73;7.82;;;24.30;95.70;;;;;;21070809;28;20141;-49
2023/06/19 08:45:32;;;;;;;10.02;9.13;;;25.10;96.80;;;;;;21052311;28;20032;-49
2023/06/19 08:55:35;;;;;;;13.68;12.48;;;24.60;98.80;;;;;;21069280;28;20036;-52
2023/06/19 09:05:43;;;;;;;14.75;13.30;;;25.40;98.20;;;;;;21067001;28;20473;-47
2023/06/19 09:15:45;;;;;;;13.70;12.52;;;26.40;96.90;;;;;;21067424;28;20496;-55
2023/06/19 09:25:48;;;;;;;18.35;16.55;;;27.70;96.70;;;;;;21067074;28;20024;-54
2023/06/19 09:35:50;;;;;;;15.02;12.50;;;26.60;96.40;;;;;;21066909;28;20447;-49
2023/06/19 09:45:55;;;;;;;19.17;17.27;;;27.30;97.10;;;;;;21064898;28;20093;-51
2023/06/19 09:55:57;;;;;;;20.33;18.23;;;27.30;96.90;;;;;;21064593;28;20684;-50
2023/06/19 10:06:00;;;;;;;22.00;19.73;;;26.80;97.40;;;;;;21062042;28;20028;-50
2023/06/19 10:16:03;;;;;;;23.40;20.88;;;25.30;99.20;;;;;;21063147;28;20036;-53
2023/06/19 10:26:06;;;;;;;22.15;19.95;;;25.10;99.60;;;;;;21062873;28;20172;-49
2023/06/19 10:36:19;;;;;;;23.20;20.95;;;25.20;98.60;;;;;;21062196;28;20442;-50
2023/06/19 10:46:23;;;;;;;19.20;17.23;;;25.80;99.80;;;;;;21058258;28;20381;-53
2023/06/19 10:56:25;;;;;;;20.80;18.77;;;25.40;98.00;;;;;;21073891;28;20036;-54
2023/06/19 11:06:27;;;;;;;17.98;16.10;;;24.80;97.60;;;;;;21078350;28;20109;-51
2023/06/19 11:16:28;;;;;;;13.57;11.45;;;24.30;99.90;;;;;;21076952;28;20474;-54
2023/06/19 11:26:33;;;;;;;15.20;13.60;;;25.10;98.50;;;;;;21076565;28;20028;-49
2023/06/19 11:36:38;;;;;;;15.40;13.90;;;25.50;98.90;;;;;;21057369;28;20497;-51
2023/06/19 11:46:40;;;;;;;17.58;14.85;;;26.50;98.20;;;;;;21056786;28;20362;-53
2023/06/19 11:56:42;;;;;;;17.25;15.05;;;26.90;98.00;;;;;;21073902;28;20036;-55
2023/06/19 12:06:43;;;;;;;15.40;13.95;;;27.10;96.30;;;;;;21036299;28;20566;-54
2023/06/19 12:16:46;;;;;;;12.85;11.55;;;27.10;96.80;;;;;;21070354;28;20377;-51
2023/06/19 12:26:47;;;;;;;12.70;11.38;;;27.00;96.80;;;;;;21068471;28;20027;-51
2023/06/19 12:36:49;;;;;;;11.10;9.50;;;27.00;94.20;;;;;;21045810;28;20036;-51
2023/06/19 12:46:52;;;;;;;11.07;9.80;;;26.80;96.00;;;;;;21069733;28;20101;-52
2023/06/19 12:56:54;;;;;;;11.88;7.32;;;27.00;93.80;;;;;;21064865;28;20485;-55
2023/06/19 13:06:56;;;;;;;11.82;7.50;;;27.30;95.30;;;;;;21066287;28;20418;-51
2023/06/19 13:16:58;;;;;;;13.90;8.70;;;27.40;95.30;;;;;;21065363;28;20040;-54
2023/06/19 13:27:00;;;;;;;7.22;6.63;;;27.90;94.50;;;;;;21062993;28;20027;-49
2023/06/19 13:37:02;;;;;;;25.42;11.60;;;27.70;93.90;;;;;;21064940;28;20114;-52
2023/06/19 13:47:14;;;;;;;67.55;22.67;;;27.50;93.90;;;;;;21219872;27;20644;-54
2023/06/19 13:57:15;;;;;;;14.52;8.40;;;27.20;95.30;;;;;;21202602;28;20023;-49
2023/06/19 14:07:18;;;;;;;8.48;5.90;;;27.40;92.80;;;;;;21216308;28;20039;-54
2023/06/19 14:17:21;;;;;;;8.32;7.28;;;27.50;92.50;;;;;;21218396;28;20434;-54
2023/06/19 14:27:22;;;;;;;486.55;136.95;;;27.80;94.00;;;;;;21216738;28;20047;-55
2023/06/19 14:37:24;;;;;;;97.15;32.35;;;28.70;92.20;;;;;;21216295;27;20024;-50
2023/06/19 14:47:26;;;;;;;56.28;22.38;;;28.80;92.00;;;;;;21215748;28;20053;-52
2023/06/19 14:57:27;;;;;;;14.00;12.70;;;29.00;92.20;;;;;;21162630;28;20047;-56
2023/06/19 15:07:29;;;;;;;17.67;13.07;;;29.10;91.70;;;;;;21157324;28;20537;-51
2023/06/19 15:17:30;;;;;;;14.52;11.25;;;28.50;92.40;;;;;;21157129;28;20036;-51
2023/06/19 15:27:32;;;;;;;14.88;13.13;;;28.40;92.60;;;;;;21156543;28;20143;-54
2023/06/19 15:37:34;;;;;;;11.85;10.60;;;28.20;92.90;;;;;;21155713;28;20036;-51
2023/06/19 15:47:35;;;;;;;13.82;12.43;;;27.70;93.40;;;;;;21154569;28;20465;-53
2023/06/19 15:57:37;;;;;;;14.30;12.95;;;27.10;93.30;;;;;;21153969;28;20574;-55
2023/06/19 16:07:39;;;;;;;15.25;13.75;;;26.40;94.30;;;;;;21149608;28;20034;-48
2023/06/19 16:17:40;;;;;;;17.98;14.55;;;24.40;96.70;;;;;;21151561;28;20054;-53
2023/06/19 16:27:42;;;;;;;16.48;14.70;;;23.10;98.80;;;;;;21151021;28;20040;-52
2023/06/19 16:37:44;;;;;;;18.77;15.70;;;21.90;99.90;;;;;;21149326;27;20039;-49
2023/06/19 16:47:45;;;;;;;20.75;16.40;;;21.30;99.90;;;;;;21149345;28;20071;-50
2023/06/19 16:57:47;;;;;;;19.35;16.10;;;20.80;99.90;;;;;;21146307;28;20085;-49
2023/06/19 17:07:50;;;;;;;18.40;16.17;;;20.30;99.90;;;;;;21149760;28;20545;-52
2023/06/19 17:17:51;;;;;;;19.48;16.95;;;19.80;99.90;;;;;;21147586;28;20030;-52
2023/06/19 17:27:53;;;;;;;18.92;16.85;;;19.30;99.90;;;;;;21147011;28;20549;-50
2023/06/19 17:37:57;;;;;;;19.35;16.38;;;19.10;99.90;;;;;;21137563;28;20443;-52
2023/06/19 17:47:59;;;;;;;20.50;17.17;;;19.20;99.90;;;;;;21091656;28;20453;-46
2023/06/19 17:58:01;;;;;;;17.85;15.98;;;19.00;99.90;;;;;;21083961;28;20041;-50
2023/06/19 18:08:02;;;;;;;23.05;18.17;;;18.60;99.90;;;;;;21087847;28;20027;-50
2023/06/19 18:18:04;;;;;;;25.45;20.02;;;18.30;99.90;;;;;;21096292;28;20043;-51
2023/06/19 18:28:05;;;;;;;24.25;18.95;;;17.80;99.90;;;;;;21086104;28;20366;-53
2023/06/19 18:38:07;;;;;;;23.00;20.60;;;17.30;99.90;;;;;;21115401;28;20059;-49
2023/06/19 18:48:09;;;;;;;26.02;20.92;;;17.30;99.90;;;;;;21104906;28;20024;-49
2023/06/19 18:58:11;;;;;;;26.10;20.80;;;17.10;99.90;;;;;;21097980;28;20091;-48
2023/06/19 19:08:13;;;;;;;25.42;22.70;;;16.70;99.90;;;;;;21093510;28;20024;-50
2023/06/19 19:18:14;;;;;;;20.80;18.02;;;16.50;99.90;;;;;;21110924;28;20218;-48
2023/06/19 19:28:16;;;;;;;12.10;10.23;;;16.30;99.90;;;;;;21094726;28;20027;-47
2023/06/19 19:38:19;;;;;;;11.60;9.25;;;16.40;99.90;;;;;;21091906;28;20052;-50
2023/06/19 19:48:21;;;;;;;11.00;8.75;;;16.80;99.90;;;;;;21108376;28;20035;-47
2023/06/19 19:58:23;;;;;;;10.02;8.82;;;17.70;99.90;;;;;;21099703;28;20040;-53
2023/06/19 20:08:25;;;;;;;10.68;9.57;;;18.20;99.90;;;;;;21094344;28;20036;-53
2023/06/19 20:18:26;;;;;;;11.77;10.50;;;18.00;99.90;;;;;;21096970;28;20084;-52
2023/06/19 20:28:28;;;;;;;12.07;9.88;;;17.70;99.90;;;;;;21104644;28;20031;-48
2023/06/19 20:38:30;;;;;;;17.17;15.27;;;17.00;99.90;;;;;;21076942;28;20043;-49
2023/06/19 20:48:31;;;;;;;23.02;18.50;;;16.50;99.90;;;;;;21093371;28;20036;-47
2023/06/19 20:58:33;;;;;;;20.42;16.48;;;16.10;99.90;;;;;;21097872;28;20032;-54
2023/06/19 21:08:34;;;;;;;21.00;17.10;;;15.80;99.90;;;;;;21080760;28;20023;-52
2023/06/19 21:18:36;;;;;;;17.38;15.00;;;15.70;99.90;;;;;;21087784;28;20130;-53
2023/06/19 21:28:38;;;;;;;18.52;15.90;;;15.70;99.90;;;;;;21090320;28;20040;-51
2023/06/19 21:38:40;;;;;;;17.13;15.32;;;15.60;99.90;;;;;;21080256;28;20048;-48
2023/06/19 21:48:41;;;;;;;17.20;15.23;;;15.80;99.90;;;;;;21081572;28;20362;-51
2023/06/19 21:58:43;;;;;;;19.92;16.70;;;16.10;99.90;;;;;;21092073;28;20104;-50
2023/06/19 22:08:44;;;;;;;22.65;16.35;;;16.40;99.90;;;;;;21097805;28;20036;-50
2023/06/19 22:18:46;;;;;;;18.30;16.08;;;17.00;99.90;;;;;;21100668;28;20035;-46
2023/06/19 22:28:48;;;;;;;20.38;17.27;;;17.20;99.90;;;;;;21109861;28;20082;-48
2023/06/19 22:38:49;;;;;;;23.75;19.23;;;17.10;99.90;;;;;;21096332;28;20093;-49
2023/06/19 22:48:52;;;;;;;16.63;14.82;;;17.00;99.90;;;;;;21103708;28;20036;-49
2023/06/19 22:58:53;;;;;;;22.63;18.45;;;16.70;99.90;;;;;;21108732;28;20032;-48
2023/06/19 23:08:55;;;;;;;24.38;20.90;;;16.50;99.90;;;;;;21101540;28;20381;-52
2023/06/19 23:18:57;;;;;;;34.03;25.27;;;16.70;99.90;;;;;;21104101;28;20028;-51
2023/06/19 23:28:58;;;;;;;29.25;23.35;;;16.70;99.90;;;;;;21111622;28;20047;-46
2023/06/19 23:39:00;;;;;;;28.48;23.05;;;16.40;99.90;;;;;;21095752;28;20323;-53
2023/06/19 23:49:02;;;;;;;29.02;23.08;;;16.20;99.90;;;;;;21087867;28;20032;-50
2023/06/19 23:59:04;;;;;;;32.92;26.75;;;16.10;99.90;;;;;;21114168;28;20032;-52
